Aguilar, CO

12:31 AM MDT on October 25, 2014 (GMT -0600)
Raton Municipal-Crews | Change Station
CLOSE
Current Station
Airport
Location: Raton,
Elevation: 6352 ft
Nearby Weather Stations

Elev 6352 ft 36.74 °N, 104.50 °W | Updated 38 minutes ago

Clear
Clear
44 °F
Feels Like 40 °F
N
8
Wind Variable Wind from NNE

Today
High -- | Low -- °F
--% Chance of Precip.
Yesterday
High -- | Low -- °F
Precip. -- in
7:16 AM 6:08 PM
New Moon, 2% visible
Pressure 30.11 in
Visibility 10.0 miles
Clouds Clear
Windchill 40 °F
Dew Point 31 °F
Humidity 60%
Rainfall 0.00 in
Snow Depth Not available.
UV 0 out of 12
Pollen 2.70 out of 12
Air Quality Not available.
Flu Activity Sporadic
METAR KRTN 250553Z AUTO 03007KT 10SM CLR 07/M01 A3030 RMK AO2 SLP195 T00671006 10222 20067 50003

More Conditions Fewer Conditions

Pressure 30.11 in
Visibility 10.0 miles
Clouds Clear
Windchill 40 °F
Dew Point 31 °F
Humidity 60%
Rainfall 0.00 in
Snow Depth Not available.
UV 0 out of 12
Pollen 2.70 out of 12
Air Quality Not available.
Flu Activity Sporadic
METAR KRTN 250553Z AUTO 03007KT 10SM CLR 07/M01 A3030 RMK AO2 SLP195 T00671006 10222 20067 50003

More Conditions Fewer Conditions

10-Day Weather Forecast

Almanac

Astronomy

Oct. 25, 2014 Rise Set
Actual Time 7:16 AM MDT 6:08 PM MDT
Civil Twilight 6:49 AM MDT 6:35 PM MDT
Nautical Twilight 6:19 AM MDT 7:05 PM MDT
Astronomical Twilight 5:48 AM MDT 7:35 PM MDT
Moon 8:56 AM MDT 7:35 PM MDT
Length of Visible Light 11h 45m
Length of Day
10h 52m
Tomorrow will be 2m 12s shorter.
New Moon, 2% of the Moon is Illuminated
Today
New Moon
Oct 30
First Quarter
Nov 6
Full
Nov 14
Last Quarter
Nov 22
New

Today's Extremes

State Highs State Lows

Community

WunderPhotos

Upload Photos

1,764,785 photos uploaded!

Nearby

Snow Depth

Station Depth Elevation
Apishapa 0 in 10000 ft
Trinchera 1 in 10860 ft
Culebra #2 0 in 10500 ft
Ute Creek 0 in 10650 ft
Medano Pass 1 in 9620 ft

Earthquake Activity

City Distance Mag. Time & Date
No recent earthquake activity has been reported nearby.
Minimum magnitude displayed is 2.5.

Coastal Water Temperatures

Place Temperature
No Stations Reporting

Nearby Weather Stations